createdAt,value
2023-03-29T00:01:36.697Z,2.33
2023-03-29T00:06:02.987Z,3.22
2023-03-29T00:10:29.485Z,2.95
2023-03-29T00:14:53.712Z,2.43
2023-03-29T00:19:19.049Z,3.45
2023-03-29T00:23:44.597Z,2.30
2023-03-29T00:28:08.575Z,2.67
2023-03-29T00:32:32.485Z,3.42
2023-03-29T00:36:58.005Z,2.28
2023-03-29T00:41:21.874Z,2.93
2023-03-29T00:45:45.832Z,2.97
2023-03-29T00:50:14.424Z,2.00
2023-03-29T00:54:41.166Z,2.65
2023-03-29T00:59:08.300Z,2.00
2023-03-29T01:03:41.515Z,2.42
2023-03-29T01:08:11.256Z,3.30
2023-03-29T01:12:41.105Z,2.17
2023-03-29T01:17:05.456Z,1.95
2023-03-29T01:21:34.193Z,1.80
2023-03-29T01:26:06.574Z,2.07
2023-03-29T01:30:34.723Z,2.53
2023-03-29T01:35:01.670Z,2.47
2023-03-29T01:39:26.077Z,2.40
2023-03-29T01:43:53.206Z,1.87
2023-03-29T01:48:25.905Z,2.22
2023-03-29T01:52:50.073Z,2.88
2023-03-29T01:57:10.725Z,1.73
2023-03-29T02:01:38.392Z,2.30
2023-03-29T02:06:00.437Z,2.38
2023-03-29T02:10:19.898Z,1.77
2023-03-29T02:14:40.549Z,1.83
2023-03-29T02:18:58.472Z,2.47
2023-03-29T02:23:21.360Z,2.80
2023-03-29T02:27:40.486Z,2.47
2023-03-29T02:32:05.244Z,2.30
2023-03-29T02:36:33.238Z,1.30
2023-03-29T02:41:01.465Z,2.10
2023-03-29T02:45:27.715Z,1.48
2023-03-29T02:49:51.908Z,1.60
2023-03-29T02:54:19.653Z,2.37
2023-03-29T02:58:45.983Z,2.00
2023-03-29T03:03:11.863Z,2.05
2023-03-29T03:07:36.145Z,2.15
2023-03-29T03:12:00.318Z,2.33
2023-03-29T03:16:26.462Z,2.47
2023-03-29T03:20:57.831Z,2.25
2023-03-29T03:25:22.381Z,1.50
2023-03-29T03:29:47.297Z,1.83
2023-03-29T03:34:11.696Z,2.25
2023-03-29T03:38:55.808Z,2.30
2023-03-29T03:43:19.792Z,2.08
2023-03-29T03:47:46.128Z,2.40
2023-03-29T03:52:31.856Z,1.80
2023-03-29T03:56:56.159Z,1.53
2023-03-29T04:01:52.888Z,1.40
2023-03-29T04:06:19.631Z,1.52
2023-03-29T04:11:08.060Z,2.20
2023-03-29T04:15:38.336Z,2.40
2023-03-29T04:20:12.474Z,2.88
2023-03-29T04:24:37.799Z,2.33
2023-03-29T04:29:20.524Z,2.17
2023-03-29T04:33:49.043Z,2.33
2023-03-29T04:38:13.593Z,2.70
2023-03-29T04:42:42.434Z,2.50
2023-03-29T04:47:08.792Z,2.28
2023-03-29T04:51:35.058Z,2.70
2023-03-29T04:56:00.112Z,2.57
2023-03-29T05:00:58.236Z,2.50
2023-03-29T05:05:36.748Z,2.65
2023-03-29T05:10:01.015Z,2.70
2023-03-29T05:14:25.101Z,2.10
2023-03-29T05:18:49.403Z,2.10
2023-03-29T05:23:15.282Z,2.88
2023-03-29T05:27:57.771Z,3.10
2023-03-29T05:32:21.941Z,2.60
2023-03-29T05:36:46.604Z,2.80
2023-03-29T05:41:13.050Z,2.07
2023-03-29T05:45:57.609Z,2.63
2023-03-29T05:50:22.503Z,2.35
2023-03-29T05:54:47.115Z,2.60
2023-03-29T05:59:15.082Z,1.85
2023-03-29T06:03:39.773Z,2.88
2023-03-29T06:08:04.380Z,2.53
2023-03-29T06:12:28.383Z,1.80
2023-03-29T06:16:58.303Z,2.85
2023-03-29T06:21:17.650Z,3.80
2023-03-29T06:25:42.344Z,2.40
2023-03-29T06:30:08.239Z,3.42
2023-03-29T06:34:38.046Z,3.70
2023-03-29T06:39:37.706Z,3.00
2023-03-29T06:44:22.892Z,2.35
2023-03-29T06:48:57.185Z,3.15
2023-03-29T06:53:30.796Z,4.10
2023-03-29T06:58:00.309Z,4.27
2023-03-29T07:02:26.824Z,4.53
2023-03-29T07:07:01.727Z,3.17
2023-03-29T07:11:31.529Z,4.03
2023-03-29T07:16:03.975Z,4.55
2023-03-29T07:20:47.671Z,4.80
2023-03-29T07:25:12.829Z,3.20
2023-03-29T07:29:41.190Z,3.45
2023-03-29T07:34:03.314Z,5.43
2023-03-29T07:38:27.473Z,5.10
2023-03-29T07:43:09.099Z,4.50
2023-03-29T07:47:35.411Z,3.83
2023-03-29T07:52:03.785Z,4.05
2023-03-29T07:56:27.921Z,4.10
2023-03-29T08:01:06.560Z,4.47
2023-03-29T08:05:50.635Z,5.35
2023-03-29T08:10:16.473Z,5.27
2023-03-29T08:14:46.710Z,3.97
2023-03-29T08:19:16.916Z,4.30
2023-03-29T08:23:52.190Z,4.40
2023-03-29T08:28:21.122Z,3.47
2023-03-29T08:32:50.949Z,3.95
2023-03-29T08:37:09.888Z,3.40
2023-03-29T08:41:58.921Z,4.40
2023-03-29T08:46:35.399Z,5.60
2023-03-29T08:51:22.057Z,5.65
2023-03-29T08:55:48.523Z,4.57
2023-03-29T09:00:55.279Z,3.20
2023-03-29T09:05:25.234Z,4.13
2023-03-29T09:10:03.537Z,3.85
2023-03-29T09:14:56.441Z,4.20
2023-03-29T09:19:29.831Z,5.32
2023-03-29T09:24:22.838Z,4.93
2023-03-29T09:29:01.316Z,5.80
2023-03-29T09:33:28.235Z,5.40
2023-03-29T09:38:03.978Z,5.20
2023-03-29T09:42:31.036Z,5.00
2023-03-29T09:46:58.088Z,5.20
2023-03-29T09:51:31.110Z,5.05
2023-03-29T09:55:59.753Z,5.30
2023-03-29T10:00:42.008Z,4.60
2023-03-29T10:05:09.309Z,5.25
2023-03-29T10:09:34.254Z,4.70
2023-03-29T10:14:18.163Z,4.90
2023-03-29T10:18:44.020Z,4.30
2023-03-29T10:23:09.354Z,4.20
2023-03-29T10:27:34.812Z,4.33
2023-03-29T10:32:00.568Z,4.30
2023-03-29T10:36:27.006Z,4.07
2023-03-29T10:40:52.453Z,4.20
2023-03-29T10:45:27.461Z,3.67
2023-03-29T10:49:56.855Z,3.80
2023-03-29T10:54:24.354Z,3.97
2023-03-29T10:59:04.134Z,4.30
2023-03-29T11:03:55.979Z,3.38
2023-03-29T11:08:33.104Z,4.10
2023-03-29T11:13:04.885Z,4.10
2023-03-29T11:17:44.658Z,3.92
2023-03-29T11:22:17.258Z,4.22
2023-03-29T11:26:57.588Z,4.30
2023-03-29T11:31:35.921Z,3.80
2023-03-29T11:36:10.611Z,3.80
2023-03-29T11:40:50.812Z,3.92
2023-03-29T11:45:19.679Z,3.97
2023-03-29T11:49:49.254Z,3.30
2023-03-29T11:54:17.678Z,3.92
2023-03-29T11:58:46.991Z,4.03
2023-03-29T12:03:18.677Z,4.00
2023-03-29T12:07:49.783Z,4.30
2023-03-29T12:12:19.566Z,3.67
2023-03-29T12:16:48.400Z,2.63
2023-03-29T12:21:18.152Z,3.65
2023-03-29T12:25:53.506Z,2.92
2023-03-29T12:30:32.050Z,3.70
2023-03-29T12:35:12.761Z,3.85
2023-03-29T12:40:06.508Z,3.70
2023-03-29T12:44:53.330Z,3.60
2023-03-29T12:49:29.355Z,3.20
2023-03-29T12:53:55.146Z,3.70
2023-03-29T12:58:39.204Z,3.67
2023-03-29T13:03:05.948Z,3.60
2023-03-29T13:07:33.154Z,3.22
2023-03-29T13:11:58.743Z,3.78
2023-03-29T13:16:32.284Z,3.43
2023-03-29T13:21:05.557Z,3.40
2023-03-29T13:25:48.191Z,4.22
2023-03-29T13:30:41.057Z,3.90
2023-03-29T13:35:13.058Z,3.63
2023-03-29T13:39:37.765Z,3.33
2023-03-29T13:44:02.579Z,3.35
2023-03-29T13:48:28.534Z,2.77
2023-03-29T13:53:03.948Z,3.20
2023-03-29T13:57:34.953Z,3.13
2023-03-29T14:02:02.892Z,3.03
2023-03-29T14:06:30.422Z,3.50
2023-03-29T14:10:56.374Z,3.60
2023-03-29T14:15:24.756Z,3.60
2023-03-29T14:19:49.548Z,3.20
2023-03-29T14:24:18.124Z,3.55
2023-03-29T14:28:47.252Z,3.30
2023-03-29T14:33:13.822Z,3.50
2023-03-29T14:37:37.754Z,2.80
2023-03-29T14:42:02.239Z,3.10
2023-03-29T14:46:28.220Z,3.23
2023-03-29T14:50:52.698Z,3.50
2023-03-29T14:55:23.634Z,3.90
2023-03-29T14:59:55.832Z,3.10
2023-03-29T15:04:21.307Z,3.40
2023-03-29T15:08:57.955Z,3.50
2023-03-29T15:13:28.867Z,3.17
2023-03-29T15:17:53.955Z,3.20
2023-03-29T15:22:19.450Z,3.25
2023-03-29T15:26:43.490Z,2.97
2023-03-29T15:31:12.863Z,2.67
2023-03-29T15:35:38.093Z,3.05
2023-03-29T15:40:09.882Z,2.58
2023-03-29T15:44:36.463Z,2.77
2023-03-29T15:49:00.635Z,3.13
2023-03-29T15:53:24.616Z,2.92
2023-03-29T15:57:50.746Z,3.00
2023-03-29T16:02:16.697Z,2.53
2023-03-29T16:06:40.989Z,2.20
2023-03-29T16:11:06.788Z,2.20
2023-03-29T16:15:33.663Z,2.20
2023-03-29T16:19:57.622Z,2.13
2023-03-29T16:24:25.020Z,2.80
2023-03-29T16:28:48.933Z,2.50
2023-03-29T16:33:14.251Z,3.20
2023-03-29T16:37:38.123Z,3.38
2023-03-29T16:42:02.102Z,2.80
2023-03-29T16:46:26.626Z,2.90
2023-03-29T16:50:52.049Z,3.22
2023-03-29T16:55:18.929Z,3.28
2023-03-29T16:59:45.110Z,3.70
2023-03-29T17:04:09.178Z,3.95
2023-03-29T17:08:34.826Z,3.70
2023-03-29T17:12:58.774Z,4.47
2023-03-29T17:17:22.560Z,4.03
2023-03-29T17:21:46.417Z,3.70
2023-03-29T17:26:13.089Z,4.60
2023-03-29T17:30:37.342Z,4.73
2023-03-29T17:35:01.258Z,4.65
2023-03-29T17:39:27.206Z,4.38
2023-03-29T17:43:52.594Z,3.90
2023-03-29T17:48:16.478Z,3.95
2023-03-29T17:52:40.939Z,4.50
2023-03-29T17:57:04.932Z,3.77
2023-03-29T18:01:30.932Z,3.97
2023-03-29T18:05:55.229Z,4.22
2023-03-29T18:10:19.339Z,3.92
2023-03-29T18:14:43.155Z,4.70
2023-03-29T18:19:10.683Z,4.50
2023-03-29T18:23:34.745Z,4.40
2023-03-29T18:27:58.900Z,4.70
2023-03-29T18:32:22.921Z,4.45
2023-03-29T18:36:50.480Z,3.47
2023-03-29T18:41:15.919Z,4.20
2023-03-29T18:45:39.983Z,3.90
2023-03-29T18:50:04.030Z,3.70
2023-03-29T18:54:29.704Z,3.88
2023-03-29T18:58:53.620Z,3.47
2023-03-29T19:03:17.762Z,3.70
2023-03-29T19:07:41.848Z,3.10
2023-03-29T19:12:07.812Z,3.60
2023-03-29T19:16:31.745Z,3.30
2023-03-29T19:20:55.651Z,3.20
2023-03-29T19:25:19.667Z,2.90
2023-03-29T19:29:44.981Z,3.35
2023-03-29T19:34:10.923Z,3.45
2023-03-29T19:38:34.950Z,2.50
2023-03-29T19:42:58.826Z,3.40
2023-03-29T19:47:23.912Z,3.30
2023-03-29T19:51:48.198Z,3.20
2023-03-29T19:56:14.365Z,3.30
2023-03-29T20:00:38.939Z,2.80
2023-03-29T20:05:04.423Z,4.72
2023-03-29T20:09:28.422Z,3.67
2023-03-29T20:13:52.214Z,3.35
2023-03-29T20:18:16.550Z,3.58
2023-03-29T20:22:45.473Z,3.50
2023-03-29T20:27:09.662Z,3.30
2023-03-29T20:31:33.711Z,3.28
2023-03-29T20:35:57.985Z,3.30
2023-03-29T20:40:23.157Z,3.60
2023-03-29T20:44:50.499Z,3.08
2023-03-29T20:49:14.604Z,3.75
2023-03-29T20:53:42.875Z,3.30
2023-03-29T20:58:08.323Z,3.15
2023-03-29T21:02:32.526Z,3.42
2023-03-29T21:06:59.900Z,3.25
2023-03-29T21:11:25.675Z,3.53
2023-03-29T21:15:51.145Z,3.28
2023-03-29T21:20:16.034Z,3.53
2023-03-29T21:24:40.009Z,2.87
2023-03-29T21:29:04.323Z,3.38
2023-03-29T21:33:29.605Z,3.50
2023-03-29T21:37:53.727Z,3.40
2023-03-29T21:42:17.754Z,3.60
2023-03-29T21:46:41.711Z,4.20
2023-03-29T21:51:07.818Z,3.40
2023-03-29T21:55:34.132Z,3.40
2023-03-29T21:59:58.571Z,3.10
2023-03-29T22:04:35.413Z,2.88
2023-03-29T22:09:03.142Z,3.50
2023-03-29T22:13:29.632Z,3.50
2023-03-29T22:17:57.740Z,3.63
2023-03-29T22:22:24.417Z,2.80
2023-03-29T22:26:49.895Z,3.50
2023-03-29T22:31:16.552Z,3.90
2023-03-29T22:35:40.511Z,3.50
2023-03-29T22:40:05.369Z,3.60
2023-03-29T22:44:30.955Z,3.67
2023-03-29T22:48:55.037Z,3.30
2023-03-29T22:53:19.223Z,3.90
2023-03-29T22:57:43.734Z,3.40
2023-03-29T23:02:08.961Z,3.50
2023-03-29T23:06:32.943Z,3.27
2023-03-29T23:10:57.444Z,3.72
2023-03-29T23:15:22.865Z,1.95
2023-03-29T23:19:48.442Z,2.45
2023-03-29T23:24:12.238Z,2.93
2023-03-29T23:28:36.370Z,3.60
2023-03-29T23:33:00.203Z,3.40
2023-03-29T23:37:25.473Z,3.77
2023-03-29T23:41:49.425Z,3.80
2023-03-29T23:46:15.252Z,3.60
2023-03-29T23:50:39.503Z,3.80
2023-03-29T23:55:06.236Z,2.45
2023-03-29T23:59:31.193Z,3.92
